sensor_id;sensor_type;location;lat;lon;timestamp;P1;durP1;ratioP1;P2;durP2;ratioP2
60610;SDS011;46439;51.164;13.572;2022-07-18T00:02:07;3.00;;;2.00;;
60610;SDS011;46439;51.164;13.572;2022-07-18T00:04:36;5.20;;;2.00;;
60610;SDS011;46439;51.164;13.572;2022-07-18T00:07:04;5.10;;;2.30;;
60610;SDS011;46439;51.164;13.572;2022-07-18T00:09:33;5.00;;;2.60;;
60610;SDS011;46439;51.164;13.572;2022-07-18T00:12:01;6.50;;;2.20;;
60610;SDS011;46439;51.164;13.572;2022-07-18T00:14:31;6.10;;;2.20;;
60610;SDS011;46439;51.164;13.572;2022-07-18T00:17:00;4.10;;;2.30;;
60610;SDS011;46439;51.164;13.572;2022-07-18T00:19:30;5.60;;;2.30;;
60610;SDS011;46439;51.164;13.572;2022-07-18T00:21:58;5.20;;;2.20;;
60610;SDS011;46439;51.164;13.572;2022-07-18T00:24:27;7.40;;;2.50;;
60610;SDS011;46439;51.164;13.572;2022-07-18T00:26:55;3.80;;;1.90;;
60610;SDS011;46439;51.164;13.572;2022-07-18T00:29:24;7.10;;;2.30;;
60610;SDS011;46439;51.164;13.572;2022-07-18T00:31:53;6.00;;;1.90;;
60610;SDS011;46439;51.164;13.572;2022-07-18T00:34:21;8.10;;;2.50;;
60610;SDS011;46439;51.164;13.572;2022-07-18T00:36:49;6.40;;;2.60;;
60610;SDS011;46439;51.164;13.572;2022-07-18T00:39:17;11.60;;;3.60;;
60610;SDS011;46439;51.164;13.572;2022-07-18T00:41:46;12.30;;;3.60;;
60610;SDS011;46439;51.164;13.572;2022-07-18T00:44:19;8.40;;;3.60;;
60610;SDS011;46439;51.164;13.572;2022-07-18T00:46:49;11.90;;;3.60;;
60610;SDS011;46439;51.164;13.572;2022-07-18T00:49:18;8.00;;;3.80;;
60610;SDS011;46439;51.164;13.572;2022-07-18T00:51:47;8.70;;;3.30;;
60610;SDS011;46439;51.164;13.572;2022-07-18T00:54:15;9.50;;;3.60;;
60610;SDS011;46439;51.164;13.572;2022-07-18T00:56:44;9.70;;;3.30;;
60610;SDS011;46439;51.164;13.572;2022-07-18T00:59:14;6.10;;;2.80;;
60610;SDS011;46439;51.164;13.572;2022-07-18T01:01:42;7.40;;;3.20;;
60610;SDS011;46439;51.164;13.572;2022-07-18T01:04:16;6.60;;;2.70;;
60610;SDS011;46439;51.164;13.572;2022-07-18T01:06:46;7.10;;;2.80;;
60610;SDS011;46439;51.164;13.572;2022-07-18T01:09:15;8.70;;;2.80;;
60610;SDS011;46439;51.164;13.572;2022-07-18T01:11:44;7.10;;;2.70;;
60610;SDS011;46439;51.164;13.572;2022-07-18T01:14:13;5.00;;;2.40;;
60610;SDS011;46439;51.164;13.572;2022-07-18T01:16:42;7.10;;;2.70;;
60610;SDS011;46439;51.164;13.572;2022-07-18T01:19:11;7.90;;;2.70;;
60610;SDS011;46439;51.164;13.572;2022-07-18T01:21:39;5.70;;;2.40;;
60610;SDS011;46439;51.164;13.572;2022-07-18T01:24:08;6.00;;;2.50;;
60610;SDS011;46439;51.164;13.572;2022-07-18T01:26:36;6.90;;;3.30;;
60610;SDS011;46439;51.164;13.572;2022-07-18T01:29:05;6.30;;;2.40;;
60610;SDS011;46439;51.164;13.572;2022-07-18T01:31:33;6.90;;;2.90;;
60610;SDS011;46439;51.164;13.572;2022-07-18T01:34:01;6.20;;;2.60;;
60610;SDS011;46439;51.164;13.572;2022-07-18T01:36:30;8.00;;;2.80;;
60610;SDS011;46439;51.164;13.572;2022-07-18T01:38:58;7.60;;;2.90;;
60610;SDS011;46439;51.164;13.572;2022-07-18T01:41:27;7.00;;;2.80;;
60610;SDS011;46439;51.164;13.572;2022-07-18T01:43:55;6.10;;;2.70;;
60610;SDS011;46439;51.164;13.572;2022-07-18T01:46:23;6.10;;;2.60;;
60610;SDS011;46439;51.164;13.572;2022-07-18T01:48:52;6.50;;;2.80;;
60610;SDS011;46439;51.164;13.572;2022-07-18T01:51:20;7.00;;;3.00;;
60610;SDS011;46439;51.164;13.572;2022-07-18T01:53:54;5.60;;;2.60;;
60610;SDS011;46439;51.164;13.572;2022-07-18T01:56:27;6.60;;;2.70;;
60610;SDS011;46439;51.164;13.572;2022-07-18T01:58:56;5.70;;;2.70;;
60610;SDS011;46439;51.164;13.572;2022-07-18T02:01:27;9.00;;;3.10;;
60610;SDS011;46439;51.164;13.572;2022-07-18T02:03:56;6.20;;;2.80;;
60610;SDS011;46439;51.164;13.572;2022-07-18T02:06:24;7.00;;;2.90;;
60610;SDS011;46439;51.164;13.572;2022-07-18T02:08:53;6.40;;;2.90;;
60610;SDS011;46439;51.164;13.572;2022-07-18T02:11:21;8.40;;;2.90;;
60610;SDS011;46439;51.164;13.572;2022-07-18T02:13:50;6.40;;;2.80;;
60610;SDS011;46439;51.164;13.572;2022-07-18T02:16:19;6.20;;;2.60;;
60610;SDS011;46439;51.164;13.572;2022-07-18T02:18:47;6.60;;;3.00;;
60610;SDS011;46439;51.164;13.572;2022-07-18T02:21:16;4.90;;;2.70;;
60610;SDS011;46439;51.164;13.572;2022-07-18T02:23:44;9.20;;;3.00;;
60610;SDS011;46439;51.164;13.572;2022-07-18T02:26:13;7.20;;;2.90;;
60610;SDS011;46439;51.164;13.572;2022-07-18T02:28:41;5.20;;;2.90;;
60610;SDS011;46439;51.164;13.572;2022-07-18T02:31:09;6.60;;;2.60;;
60610;SDS011;46439;51.164;13.572;2022-07-18T02:33:38;7.10;;;2.60;;
60610;SDS011;46439;51.164;13.572;2022-07-18T02:36:06;5.50;;;2.60;;
60610;SDS011;46439;51.164;13.572;2022-07-18T02:38:35;6.20;;;2.70;;
60610;SDS011;46439;51.164;13.572;2022-07-18T02:41:03;4.60;;;2.40;;
60610;SDS011;46439;51.164;13.572;2022-07-18T02:43:32;7.70;;;2.60;;
60610;SDS011;46439;51.164;13.572;2022-07-18T02:46:00;5.10;;;2.70;;
60610;SDS011;46439;51.164;13.572;2022-07-18T02:48:29;4.60;;;2.40;;
60610;SDS011;46439;51.164;13.572;2022-07-18T02:50:57;7.40;;;2.80;;
60610;SDS011;46439;51.164;13.572;2022-07-18T02:53:26;5.30;;;2.50;;
60610;SDS011;46439;51.164;13.572;2022-07-18T02:55:54;4.90;;;2.30;;
60610;SDS011;46439;51.164;13.572;2022-07-18T02:58:22;5.50;;;2.30;;
60610;SDS011;46439;51.164;13.572;2022-07-18T03:00:50;4.50;;;2.40;;
60610;SDS011;46439;51.164;13.572;2022-07-18T03:03:19;6.90;;;2.40;;
60610;SDS011;46439;51.164;13.572;2022-07-18T03:05:47;6.80;;;2.50;;
60610;SDS011;46439;51.164;13.572;2022-07-18T03:08:16;6.60;;;2.40;;
60610;SDS011;46439;51.164;13.572;2022-07-18T03:10:44;4.50;;;2.50;;
60610;SDS011;46439;51.164;13.572;2022-07-18T03:13:12;5.70;;;2.40;;
60610;SDS011;46439;51.164;13.572;2022-07-18T03:15:41;5.20;;;2.40;;
60610;SDS011;46439;51.164;13.572;2022-07-18T03:18:09;4.00;;;2.40;;
60610;SDS011;46439;51.164;13.572;2022-07-18T03:20:37;4.70;;;2.30;;
60610;SDS011;46439;51.164;13.572;2022-07-18T03:23:06;5.40;;;2.40;;
60610;SDS011;46439;51.164;13.572;2022-07-18T03:25:34;5.70;;;2.30;;
60610;SDS011;46439;51.164;13.572;2022-07-18T03:28:03;6.40;;;2.30;;
60610;SDS011;46439;51.164;13.572;2022-07-18T03:30:32;5.80;;;2.30;;
60610;SDS011;46439;51.164;13.572;2022-07-18T03:33:01;7.10;;;2.30;;
60610;SDS011;46439;51.164;13.572;2022-07-18T03:35:29;4.40;;;2.40;;
60610;SDS011;46439;51.164;13.572;2022-07-18T03:37:57;8.70;;;2.50;;
60610;SDS011;46439;51.164;13.572;2022-07-18T03:40:26;7.00;;;2.30;;
60610;SDS011;46439;51.164;13.572;2022-07-18T03:42:54;6.00;;;2.30;;
60610;SDS011;46439;51.164;13.572;2022-07-18T03:45:22;7.10;;;2.10;;
60610;SDS011;46439;51.164;13.572;2022-07-18T03:47:51;8.00;;;2.40;;
60610;SDS011;46439;51.164;13.572;2022-07-18T03:50:21;8.30;;;2.40;;
60610;SDS011;46439;51.164;13.572;2022-07-18T03:52:50;5.00;;;2.40;;
60610;SDS011;46439;51.164;13.572;2022-07-18T03:55:18;5.30;;;2.30;;
60610;SDS011;46439;51.164;13.572;2022-07-18T03:57:47;7.80;;;2.30;;
60610;SDS011;46439;51.164;13.572;2022-07-18T04:00:15;5.50;;;2.40;;
60610;SDS011;46439;51.164;13.572;2022-07-18T04:02:45;5.80;;;2.20;;
60610;SDS011;46439;51.164;13.572;2022-07-18T04:05:14;5.80;;;2.30;;
60610;SDS011;46439;51.164;13.572;2022-07-18T04:07:43;3.50;;;2.10;;
60610;SDS011;46439;51.164;13.572;2022-07-18T04:10:12;8.70;;;2.10;;
60610;SDS011;46439;51.164;13.572;2022-07-18T04:12:45;5.00;;;2.10;;
60610;SDS011;46439;51.164;13.572;2022-07-18T04:15:14;6.50;;;2.50;;
60610;SDS011;46439;51.164;13.572;2022-07-18T04:17:43;5.10;;;2.40;;
60610;SDS011;46439;51.164;13.572;2022-07-18T04:20:12;6.60;;;2.70;;
60610;SDS011;46439;51.164;13.572;2022-07-18T04:22:48;8.50;;;3.10;;
60610;SDS011;46439;51.164;13.572;2022-07-18T04:25:19;7.40;;;3.00;;
60610;SDS011;46439;51.164;13.572;2022-07-18T04:27:49;6.90;;;3.30;;
60610;SDS011;46439;51.164;13.572;2022-07-18T04:30:18;6.80;;;3.10;;
60610;SDS011;46439;51.164;13.572;2022-07-18T04:32:48;8.30;;;3.20;;
60610;SDS011;46439;51.164;13.572;2022-07-18T04:35:17;7.30;;;3.20;;
60610;SDS011;46439;51.164;13.572;2022-07-18T04:37:45;8.20;;;3.10;;
60610;SDS011;46439;51.164;13.572;2022-07-18T04:40:14;8.50;;;3.00;;
60610;SDS011;46439;51.164;13.572;2022-07-18T04:42:43;7.90;;;3.10;;
60610;SDS011;46439;51.164;13.572;2022-07-18T04:45:12;7.60;;;3.40;;
60610;SDS011;46439;51.164;13.572;2022-07-18T04:47:42;8.40;;;3.80;;
60610;SDS011;46439;51.164;13.572;2022-07-18T04:50:10;5.50;;;3.10;;
60610;SDS011;46439;51.164;13.572;2022-07-18T04:52:39;9.30;;;3.20;;
60610;SDS011;46439;51.164;13.572;2022-07-18T04:55:10;5.70;;;3.30;;
60610;SDS011;46439;51.164;13.572;2022-07-18T04:57:39;9.70;;;3.60;;
60610;SDS011;46439;51.164;13.572;2022-07-18T05:00:10;7.20;;;3.10;;
60610;SDS011;46439;51.164;13.572;2022-07-18T05:05:09;7.10;;;3.10;;
60610;SDS011;46439;51.164;13.572;2022-07-18T05:07:39;8.30;;;3.50;;
60610;SDS011;46439;51.164;13.572;2022-07-18T05:10:09;8.50;;;3.00;;
60610;SDS011;46439;51.164;13.572;2022-07-18T05:12:40;7.60;;;3.20;;
60610;SDS011;46439;51.164;13.572;2022-07-18T05:15:11;6.20;;;3.00;;
60610;SDS011;46439;51.164;13.572;2022-07-18T05:17:41;8.00;;;2.90;;
60610;SDS011;46439;51.164;13.572;2022-07-18T05:20:11;6.00;;;2.90;;
60610;SDS011;46439;51.164;13.572;2022-07-18T05:22:41;6.70;;;2.90;;
60610;SDS011;46439;51.164;13.572;2022-07-18T05:25:10;11.80;;;3.20;;
60610;SDS011;46439;51.164;13.572;2022-07-18T05:27:39;6.50;;;2.80;;
60610;SDS011;46439;51.164;13.572;2022-07-18T05:30:09;5.40;;;2.80;;
60610;SDS011;46439;51.164;13.572;2022-07-18T05:32:39;5.90;;;2.70;;
60610;SDS011;46439;51.164;13.572;2022-07-18T05:35:10;6.40;;;2.60;;
60610;SDS011;46439;51.164;13.572;2022-07-18T05:37:39;8.40;;;2.70;;
60610;SDS011;46439;51.164;13.572;2022-07-18T05:40:09;7.60;;;2.90;;
60610;SDS011;46439;51.164;13.572;2022-07-18T05:42:40;5.90;;;2.50;;
60610;SDS011;46439;51.164;13.572;2022-07-18T05:45:10;5.00;;;2.60;;
60610;SDS011;46439;51.164;13.572;2022-07-18T05:47:39;7.50;;;2.70;;
60610;SDS011;46439;51.164;13.572;2022-07-18T05:50:08;8.10;;;3.00;;
60610;SDS011;46439;51.164;13.572;2022-07-18T05:52:37;6.80;;;2.80;;
60610;SDS011;46439;51.164;13.572;2022-07-18T05:55:06;6.00;;;2.60;;
60610;SDS011;46439;51.164;13.572;2022-07-18T05:57:36;5.10;;;2.60;;
60610;SDS011;46439;51.164;13.572;2022-07-18T06:00:06;8.70;;;2.80;;
60610;SDS011;46439;51.164;13.572;2022-07-18T06:02:36;4.90;;;2.60;;
60610;SDS011;46439;51.164;13.572;2022-07-18T06:05:06;7.70;;;2.40;;
60610;SDS011;46439;51.164;13.572;2022-07-18T06:07:36;7.80;;;2.70;;
60610;SDS011;46439;51.164;13.572;2022-07-18T06:10:05;7.40;;;2.80;;
60610;SDS011;46439;51.164;13.572;2022-07-18T06:12:34;9.80;;;2.70;;
60610;SDS011;46439;51.164;13.572;2022-07-18T06:15:04;6.80;;;2.60;;
60610;SDS011;46439;51.164;13.572;2022-07-18T06:17:34;5.80;;;2.40;;
60610;SDS011;46439;51.164;13.572;2022-07-18T06:20:02;8.00;;;2.70;;
60610;SDS011;46439;51.164;13.572;2022-07-18T06:25:01;7.90;;;2.10;;
60610;SDS011;46439;51.164;13.572;2022-07-18T06:27:31;9.20;;;2.60;;
60610;SDS011;46439;51.164;13.572;2022-07-18T06:29:59;5.20;;;2.30;;
60610;SDS011;46439;51.164;13.572;2022-07-18T06:32:30;8.40;;;2.50;;
60610;SDS011;46439;51.164;13.572;2022-07-18T06:34:59;5.40;;;2.50;;
60610;SDS011;46439;51.164;13.572;2022-07-18T06:37:27;7.90;;;2.40;;
60610;SDS011;46439;51.164;13.572;2022-07-18T06:39:56;4.70;;;2.40;;
60610;SDS011;46439;51.164;13.572;2022-07-18T06:42:24;7.60;;;2.40;;
60610;SDS011;46439;51.164;13.572;2022-07-18T06:44:52;7.20;;;2.50;;
60610;SDS011;46439;51.164;13.572;2022-07-18T06:47:21;6.30;;;2.00;;
60610;SDS011;46439;51.164;13.572;2022-07-18T06:49:49;8.00;;;2.60;;
60610;SDS011;46439;51.164;13.572;2022-07-18T06:52:18;7.10;;;2.30;;
60610;SDS011;46439;51.164;13.572;2022-07-18T06:54:47;7.10;;;2.30;;
60610;SDS011;46439;51.164;13.572;2022-07-18T06:57:15;7.60;;;2.80;;
60610;SDS011;46439;51.164;13.572;2022-07-18T06:59:46;4.80;;;2.00;;
60610;SDS011;46439;51.164;13.572;2022-07-18T07:02:14;6.00;;;2.00;;
60610;SDS011;46439;51.164;13.572;2022-07-18T07:04:42;6.20;;;2.00;;
60610;SDS011;46439;51.164;13.572;2022-07-18T07:07:11;4.80;;;2.20;;
60610;SDS011;46439;51.164;13.572;2022-07-18T07:09:39;5.90;;;2.20;;
60610;SDS011;46439;51.164;13.572;2022-07-18T07:12:08;5.50;;;2.10;;
60610;SDS011;46439;51.164;13.572;2022-07-18T07:14:36;4.00;;;2.10;;
60610;SDS011;46439;51.164;13.572;2022-07-18T07:17:05;6.00;;;2.10;;
60610;SDS011;46439;51.164;13.572;2022-07-18T07:19:34;8.70;;;2.20;;
60610;SDS011;46439;51.164;13.572;2022-07-18T07:22:02;6.40;;;2.10;;
60610;SDS011;46439;51.164;13.572;2022-07-18T07:24:31;9.30;;;2.00;;
60610;SDS011;46439;51.164;13.572;2022-07-18T07:26:59;5.40;;;2.20;;
60610;SDS011;46439;51.164;13.572;2022-07-18T07:29:27;6.00;;;2.10;;
60610;SDS011;46439;51.164;13.572;2022-07-18T07:31:56;5.40;;;2.20;;
60610;SDS011;46439;51.164;13.572;2022-07-18T07:34:24;5.00;;;1.80;;
60610;SDS011;46439;51.164;13.572;2022-07-18T07:36:52;8.70;;;2.20;;
60610;SDS011;46439;51.164;13.572;2022-07-18T07:39:21;8.20;;;2.10;;
60610;SDS011;46439;51.164;13.572;2022-07-18T07:41:50;4.90;;;1.80;;
60610;SDS011;46439;51.164;13.572;2022-07-18T07:44:18;6.20;;;2.00;;
60610;SDS011;46439;51.164;13.572;2022-07-18T07:46:47;7.70;;;2.00;;
60610;SDS011;46439;51.164;13.572;2022-07-18T07:49:16;7.00;;;2.50;;
60610;SDS011;46439;51.164;13.572;2022-07-18T07:51:44;5.50;;;2.20;;
60610;SDS011;46439;51.164;13.572;2022-07-18T07:54:12;6.90;;;2.30;;
60610;SDS011;46439;51.164;13.572;2022-07-18T07:56:41;4.80;;;2.00;;
60610;SDS011;46439;51.164;13.572;2022-07-18T07:59:09;6.60;;;2.20;;
60610;SDS011;46439;51.164;13.572;2022-07-18T08:01:37;2.70;;;1.60;;
60610;SDS011;46439;51.164;13.572;2022-07-18T08:04:06;5.00;;;1.60;;
60610;SDS011;46439;51.164;13.572;2022-07-18T08:06:34;8.30;;;2.00;;
60610;SDS011;46439;51.164;13.572;2022-07-18T08:09:02;6.30;;;1.90;;
60610;SDS011;46439;51.164;13.572;2022-07-18T08:11:33;5.20;;;1.90;;
60610;SDS011;46439;51.164;13.572;2022-07-18T08:14:01;5.00;;;1.70;;
60610;SDS011;46439;51.164;13.572;2022-07-18T08:16:30;4.20;;;1.50;;
60610;SDS011;46439;51.164;13.572;2022-07-18T08:18:59;3.80;;;1.60;;
60610;SDS011;46439;51.164;13.572;2022-07-18T08:21:28;9.10;;;2.30;;
60610;SDS011;46439;51.164;13.572;2022-07-18T08:23:57;3.80;;;1.70;;
60610;SDS011;46439;51.164;13.572;2022-07-18T08:26:25;4.20;;;1.90;;
60610;SDS011;46439;51.164;13.572;2022-07-18T08:28:54;4.70;;;1.80;;
60610;SDS011;46439;51.164;13.572;2022-07-18T08:31:22;5.40;;;1.70;;
60610;SDS011;46439;51.164;13.572;2022-07-18T08:33:51;6.40;;;1.50;;
60610;SDS011;46439;51.164;13.572;2022-07-18T08:36:20;3.40;;;1.70;;
60610;SDS011;46439;51.164;13.572;2022-07-18T08:38:48;4.10;;;1.80;;
60610;SDS011;46439;51.164;13.572;2022-07-18T08:41:17;4.90;;;1.70;;
60610;SDS011;46439;51.164;13.572;2022-07-18T08:43:49;7.00;;;1.90;;
60610;SDS011;46439;51.164;13.572;2022-07-18T08:46:19;5.90;;;1.70;;
60610;SDS011;46439;51.164;13.572;2022-07-18T08:48:48;6.60;;;1.80;;
60610;SDS011;46439;51.164;13.572;2022-07-18T08:51:18;4.40;;;1.90;;
60610;SDS011;46439;51.164;13.572;2022-07-18T08:53:49;5.50;;;1.60;;
60610;SDS011;46439;51.164;13.572;2022-07-18T08:56:20;7.90;;;1.60;;
60610;SDS011;46439;51.164;13.572;2022-07-18T08:58:48;4.60;;;1.70;;
60610;SDS011;46439;51.164;13.572;2022-07-18T09:01:17;6.80;;;1.70;;
60610;SDS011;46439;51.164;13.572;2022-07-18T09:03:45;5.60;;;2.00;;
60610;SDS011;46439;51.164;13.572;2022-07-18T09:06:42;3.40;;;1.60;;
60610;SDS011;46439;51.164;13.572;2022-07-18T09:09:12;5.00;;;1.60;;
60610;SDS011;46439;51.164;13.572;2022-07-18T09:11:52;3.00;;;1.50;;
60610;SDS011;46439;51.164;13.572;2022-07-18T09:14:32;5.40;;;1.80;;
60610;SDS011;46439;51.164;13.572;2022-07-18T09:17:04;4.50;;;1.80;;
60610;SDS011;46439;51.164;13.572;2022-07-18T09:19:35;4.80;;;1.80;;
60610;SDS011;46439;51.164;13.572;2022-07-18T09:22:14;4.60;;;1.60;;
60610;SDS011;46439;51.164;13.572;2022-07-18T09:24:54;4.30;;;1.50;;
60610;SDS011;46439;51.164;13.572;2022-07-18T09:27:28;5.70;;;1.80;;
60610;SDS011;46439;51.164;13.572;2022-07-18T09:32:52;4.80;;;1.80;;
60610;SDS011;46439;51.164;13.572;2022-07-18T09:35:32;5.90;;;1.80;;
60610;SDS011;46439;51.164;13.572;2022-07-18T09:38:03;7.00;;;1.90;;
60610;SDS011;46439;51.164;13.572;2022-07-18T09:40:37;5.60;;;1.60;;
60610;SDS011;46439;51.164;13.572;2022-07-18T09:43:07;3.20;;;1.70;;
60610;SDS011;46439;51.164;13.572;2022-07-18T09:45:38;7.00;;;1.80;;
60610;SDS011;46439;51.164;13.572;2022-07-18T09:48:08;2.20;;;1.50;;
60610;SDS011;46439;51.164;13.572;2022-07-18T09:50:39;4.60;;;1.80;;
60610;SDS011;46439;51.164;13.572;2022-07-18T09:53:10;3.50;;;1.60;;
60610;SDS011;46439;51.164;13.572;2022-07-18T09:55:44;5.10;;;1.80;;
60610;SDS011;46439;51.164;13.572;2022-07-18T09:58:15;3.60;;;1.70;;
60610;SDS011;46439;51.164;13.572;2022-07-18T10:00:45;9.10;;;1.80;;
60610;SDS011;46439;51.164;13.572;2022-07-18T10:03:15;4.10;;;2.00;;
60610;SDS011;46439;51.164;13.572;2022-07-18T10:05:45;4.90;;;1.80;;
60610;SDS011;46439;51.164;13.572;2022-07-18T10:08:15;3.30;;;1.80;;
60610;SDS011;46439;51.164;13.572;2022-07-18T10:10:46;5.10;;;1.90;;
60610;SDS011;46439;51.164;13.572;2022-07-18T10:13:17;6.50;;;2.00;;
60610;SDS011;46439;51.164;13.572;2022-07-18T10:15:47;3.80;;;1.70;;
60610;SDS011;46439;51.164;13.572;2022-07-18T10:18:20;2.70;;;1.70;;
60610;SDS011;46439;51.164;13.572;2022-07-18T10:20:50;3.20;;;1.80;;
60610;SDS011;46439;51.164;13.572;2022-07-18T10:23:23;3.70;;;1.80;;
60610;SDS011;46439;51.164;13.572;2022-07-18T10:26:10;5.50;;;1.90;;
60610;SDS011;46439;51.164;13.572;2022-07-18T10:31:40;4.20;;;1.70;;
60610;SDS011;46439;51.164;13.572;2022-07-18T10:34:28;2.80;;;1.90;;
60610;SDS011;46439;51.164;13.572;2022-07-18T10:37:10;3.60;;;1.80;;
60610;SDS011;46439;51.164;13.572;2022-07-18T10:39:39;4.20;;;2.10;;
60610;SDS011;46439;51.164;13.572;2022-07-18T10:42:20;5.60;;;2.40;;
60610;SDS011;46439;51.164;13.572;2022-07-18T10:44:51;3.70;;;2.00;;
60610;SDS011;46439;51.164;13.572;2022-07-18T10:47:19;3.90;;;1.70;;
60610;SDS011;46439;51.164;13.572;2022-07-18T10:50:02;4.80;;;1.90;;
60610;SDS011;46439;51.164;13.572;2022-07-18T10:55:32;3.90;;;1.90;;
60610;SDS011;46439;51.164;13.572;2022-07-18T10:58:18;2.50;;;1.60;;
60610;SDS011;46439;51.164;13.572;2022-07-18T11:00:49;3.40;;;1.90;;
60610;SDS011;46439;51.164;13.572;2022-07-18T11:05:52;3.90;;;1.90;;
60610;SDS011;46439;51.164;13.572;2022-07-18T11:08:22;4.80;;;2.10;;
60610;SDS011;46439;51.164;13.572;2022-07-18T11:11:07;3.10;;;1.80;;
60610;SDS011;46439;51.164;13.572;2022-07-18T11:13:37;3.80;;;1.90;;
60610;SDS011;46439;51.164;13.572;2022-07-18T11:16:10;3.50;;;2.00;;
60610;SDS011;46439;51.164;13.572;2022-07-18T11:21:45;4.80;;;1.80;;
60610;SDS011;46439;51.164;13.572;2022-07-18T11:24:22;10.30;;;2.30;;
60610;SDS011;46439;51.164;13.572;2022-07-18T11:26:51;4.70;;;2.00;;
60610;SDS011;46439;51.164;13.572;2022-07-18T11:29:19;4.70;;;1.90;;
60610;SDS011;46439;51.164;13.572;2022-07-18T11:31:49;4.70;;;1.80;;
60610;SDS011;46439;51.164;13.572;2022-07-18T11:34:19;4.50;;;1.80;;
60610;SDS011;46439;51.164;13.572;2022-07-18T11:36:49;3.10;;;1.80;;
60610;SDS011;46439;51.164;13.572;2022-07-18T11:39:28;3.70;;;1.90;;
60610;SDS011;46439;51.164;13.572;2022-07-18T11:41:57;3.90;;;1.90;;
60610;SDS011;46439;51.164;13.572;2022-07-18T11:44:28;3.20;;;1.90;;
60610;SDS011;46439;51.164;13.572;2022-07-18T11:47:06;6.70;;;1.80;;
60610;SDS011;46439;51.164;13.572;2022-07-18T11:49:37;3.60;;;2.20;;
60610;SDS011;46439;51.164;13.572;2022-07-18T11:52:06;5.20;;;2.10;;
60610;SDS011;46439;51.164;13.572;2022-07-18T11:54:35;5.90;;;2.10;;
60610;SDS011;46439;51.164;13.572;2022-07-18T11:57:04;3.20;;;1.70;;
60610;SDS011;46439;51.164;13.572;2022-07-18T11:59:36;2.20;;;1.70;;
60610;SDS011;46439;51.164;13.572;2022-07-18T12:02:06;3.70;;;1.90;;
60610;SDS011;46439;51.164;13.572;2022-07-18T12:04:35;2.90;;;1.70;;
60610;SDS011;46439;51.164;13.572;2022-07-18T12:07:15;5.40;;;2.10;;
60610;SDS011;46439;51.164;13.572;2022-07-18T12:09:46;7.30;;;2.00;;
60610;SDS011;46439;51.164;13.572;2022-07-18T12:12:15;3.10;;;1.90;;
60610;SDS011;46439;51.164;13.572;2022-07-18T12:14:53;2.50;;;1.90;;
60610;SDS011;46439;51.164;13.572;2022-07-18T12:17:23;2.70;;;1.90;;
60610;SDS011;46439;51.164;13.572;2022-07-18T12:19:51;3.80;;;1.90;;
60610;SDS011;46439;51.164;13.572;2022-07-18T12:22:34;4.70;;;1.80;;
60610;SDS011;46439;51.164;13.572;2022-07-18T12:25:04;4.10;;;2.20;;
60610;SDS011;46439;51.164;13.572;2022-07-18T12:27:35;2.70;;;1.90;;
60610;SDS011;46439;51.164;13.572;2022-07-18T12:30:06;6.10;;;1.90;;
60610;SDS011;46439;51.164;13.572;2022-07-18T12:32:46;4.00;;;2.00;;
60610;SDS011;46439;51.164;13.572;2022-07-18T12:35:20;3.70;;;1.90;;
60610;SDS011;46439;51.164;13.572;2022-07-18T12:37:54;3.80;;;2.00;;
60610;SDS011;46439;51.164;13.572;2022-07-18T12:40:23;4.90;;;1.80;;
60610;SDS011;46439;51.164;13.572;2022-07-18T12:43:03;3.70;;;1.90;;
60610;SDS011;46439;51.164;13.572;2022-07-18T12:45:33;4.10;;;2.10;;
60610;SDS011;46439;51.164;13.572;2022-07-18T12:48:03;5.50;;;2.20;;
60610;SDS011;46439;51.164;13.572;2022-07-18T12:50:33;6.50;;;2.00;;
60610;SDS011;46439;51.164;13.572;2022-07-18T12:53:02;3.70;;;1.90;;
60610;SDS011;46439;51.164;13.572;2022-07-18T12:55:31;2.70;;;2.10;;
60610;SDS011;46439;51.164;13.572;2022-07-18T12:58:00;5.30;;;2.40;;
60610;SDS011;46439;51.164;13.572;2022-07-18T13:00:30;5.90;;;2.20;;
60610;SDS011;46439;51.164;13.572;2022-07-18T13:02:59;4.70;;;1.90;;
60610;SDS011;46439;51.164;13.572;2022-07-18T13:05:28;3.30;;;1.90;;
60610;SDS011;46439;51.164;13.572;2022-07-18T13:07:57;4.80;;;2.10;;
60610;SDS011;46439;51.164;13.572;2022-07-18T13:10:25;3.20;;;1.90;;
60610;SDS011;46439;51.164;13.572;2022-07-18T13:12:54;4.30;;;2.10;;
60610;SDS011;46439;51.164;13.572;2022-07-18T13:15:22;2.70;;;1.70;;
60610;SDS011;46439;51.164;13.572;2022-07-18T13:17:51;5.10;;;1.70;;
60610;SDS011;46439;51.164;13.572;2022-07-18T13:20:19;2.80;;;2.00;;
60610;SDS011;46439;51.164;13.572;2022-07-18T13:22:48;3.70;;;2.10;;
60610;SDS011;46439;51.164;13.572;2022-07-18T13:25:17;4.90;;;1.90;;
60610;SDS011;46439;51.164;13.572;2022-07-18T13:27:46;3.60;;;2.10;;
60610;SDS011;46439;51.164;13.572;2022-07-18T13:30:14;7.80;;;2.10;;
60610;SDS011;46439;51.164;13.572;2022-07-18T13:32:42;4.20;;;2.10;;
60610;SDS011;46439;51.164;13.572;2022-07-18T13:35:12;3.90;;;1.80;;
60610;SDS011;46439;51.164;13.572;2022-07-18T13:37:40;3.90;;;1.80;;
60610;SDS011;46439;51.164;13.572;2022-07-18T13:40:11;4.20;;;2.00;;
60610;SDS011;46439;51.164;13.572;2022-07-18T13:42:40;3.80;;;1.90;;
60610;SDS011;46439;51.164;13.572;2022-07-18T13:45:09;5.80;;;2.00;;
60610;SDS011;46439;51.164;13.572;2022-07-18T13:47:40;5.80;;;2.10;;
60610;SDS011;46439;51.164;13.572;2022-07-18T13:50:10;3.20;;;2.00;;
60610;SDS011;46439;51.164;13.572;2022-07-18T13:52:39;4.30;;;2.10;;
60610;SDS011;46439;51.164;13.572;2022-07-18T13:55:08;4.10;;;2.00;;
60610;SDS011;46439;51.164;13.572;2022-07-18T13:57:37;3.60;;;1.70;;
60610;SDS011;46439;51.164;13.572;2022-07-18T14:00:07;4.60;;;2.00;;
60610;SDS011;46439;51.164;13.572;2022-07-18T14:02:37;4.10;;;1.80;;
60610;SDS011;46439;51.164;13.572;2022-07-18T14:05:07;6.20;;;2.20;;
60610;SDS011;46439;51.164;13.572;2022-07-18T14:07:36;5.10;;;1.90;;
60610;SDS011;46439;51.164;13.572;2022-07-18T14:10:05;4.20;;;1.90;;
60610;SDS011;46439;51.164;13.572;2022-07-18T14:12:34;4.10;;;1.80;;
60610;SDS011;46439;51.164;13.572;2022-07-18T14:15:03;2.60;;;1.80;;
60610;SDS011;46439;51.164;13.572;2022-07-18T14:17:32;4.90;;;1.90;;
60610;SDS011;46439;51.164;13.572;2022-07-18T14:20:00;4.80;;;2.20;;
60610;SDS011;46439;51.164;13.572;2022-07-18T14:22:29;2.80;;;1.80;;
60610;SDS011;46439;51.164;13.572;2022-07-18T14:24:58;4.20;;;2.00;;
60610;SDS011;46439;51.164;13.572;2022-07-18T14:27:26;3.80;;;2.00;;
60610;SDS011;46439;51.164;13.572;2022-07-18T14:29:55;3.60;;;1.90;;
60610;SDS011;46439;51.164;13.572;2022-07-18T14:32:25;3.10;;;1.90;;
60610;SDS011;46439;51.164;13.572;2022-07-18T14:34:54;3.90;;;2.20;;
60610;SDS011;46439;51.164;13.572;2022-07-18T14:37:22;2.70;;;1.80;;
60610;SDS011;46439;51.164;13.572;2022-07-18T14:39:51;3.50;;;2.00;;
60610;SDS011;46439;51.164;13.572;2022-07-18T14:42:19;4.80;;;1.90;;
60610;SDS011;46439;51.164;13.572;2022-07-18T14:44:48;4.50;;;1.80;;
60610;SDS011;46439;51.164;13.572;2022-07-18T14:47:16;3.40;;;1.80;;
60610;SDS011;46439;51.164;13.572;2022-07-18T14:49:44;3.80;;;1.90;;
60610;SDS011;46439;51.164;13.572;2022-07-18T14:52:13;5.30;;;1.90;;
60610;SDS011;46439;51.164;13.572;2022-07-18T14:54:42;4.40;;;1.90;;
60610;SDS011;46439;51.164;13.572;2022-07-18T14:57:10;3.60;;;2.00;;
60610;SDS011;46439;51.164;13.572;2022-07-18T14:59:42;4.50;;;1.60;;
60610;SDS011;46439;51.164;13.572;2022-07-18T15:02:11;3.20;;;2.00;;
60610;SDS011;46439;51.164;13.572;2022-07-18T15:04:41;4.50;;;1.90;;
60610;SDS011;46439;51.164;13.572;2022-07-18T15:07:10;4.50;;;1.90;;
60610;SDS011;46439;51.164;13.572;2022-07-18T15:09:38;5.20;;;2.00;;